sensor_id;sensor_type;location;lat;lon;timestamp;pressure;altitude;pressure_sealevel;temperature;humidity
74881;BME280;63427;49.654;6.596;2023-01-13T00:00:10;99120.14;;;10.60;53.67
74881;BME280;63427;49.654;6.596;2023-01-13T00:02:34;99122.86;;;10.02;55.96
74881;BME280;63427;49.654;6.596;2023-01-13T00:05:00;99122.62;;;10.26;54.53
74881;BME280;63427;49.654;6.596;2023-01-13T00:07:25;99119.63;;;11.11;52.72
74881;BME280;63427;49.654;6.596;2023-01-13T00:09:51;99124.81;;;11.04;52.03
74881;BME280;63427;49.654;6.596;2023-01-13T00:12:16;99120.27;;;11.17;51.35
74881;BME280;63427;49.654;6.596;2023-01-13T00:14:42;99116.55;;;11.20;52.21
74881;BME280;63427;49.654;6.596;2023-01-13T00:17:07;99114.91;;;11.32;51.33
74881;BME280;63427;49.654;6.596;2023-01-13T00:19:33;99112.48;;;11.50;51.83
74881;BME280;63427;49.654;6.596;2023-01-13T00:21:58;99099.02;;;11.30;51.25
74881;BME280;63427;49.654;6.596;2023-01-13T00:24:24;99101.50;;;11.12;52.29
74881;BME280;63427;49.654;6.596;2023-01-13T00:26:49;99103.39;;;11.18;51.52
74881;BME280;63427;49.654;6.596;2023-01-13T00:29:15;99099.40;;;11.25;51.82
74881;BME280;63427;49.654;6.596;2023-01-13T00:31:40;99089.93;;;10.77;52.60
74881;BME280;63427;49.654;6.596;2023-01-13T00:34:06;99093.83;;;10.44;53.90
74881;BME280;63427;49.654;6.596;2023-01-13T00:36:31;99092.92;;;10.91;53.08
74881;BME280;63427;49.654;6.596;2023-01-13T00:38:57;99095.36;;;11.20;52.74
74881;BME280;63427;49.654;6.596;2023-01-13T00:41:24;99087.88;;;10.98;52.72
74881;BME280;63427;49.654;6.596;2023-01-13T00:43:48;99086.73;;;11.06;52.71
74881;BME280;63427;49.654;6.596;2023-01-13T00:46:15;99089.50;;;11.04;52.92
74881;BME280;63427;49.654;6.596;2023-01-13T00:48:39;99085.51;;;11.41;52.21
74881;BME280;63427;49.654;6.596;2023-01-13T00:51:07;99077.46;;;10.65;53.60
74881;BME280;63427;49.654;6.596;2023-01-13T00:53:34;99079.80;;;11.02;53.11
74881;BME280;63427;49.654;6.596;2023-01-13T00:55:59;99074.07;;;11.29;51.99
74881;BME280;63427;49.654;6.596;2023-01-13T00:58:21;99071.17;;;11.16;52.53
74881;BME280;63427;49.654;6.596;2023-01-13T01:00:46;99073.61;;;11.25;51.96
74881;BME280;63427;49.654;6.596;2023-01-13T01:03:12;99068.60;;;11.19;51.81
74881;BME280;63427;49.654;6.596;2023-01-13T01:05:38;99057.75;;;11.29;51.30
74881;BME280;63427;49.654;6.596;2023-01-13T01:08:03;99056.37;;;11.62;51.15
74881;BME280;63427;49.654;6.596;2023-01-13T01:10:28;99043.94;;;11.86;50.62
74881;BME280;63427;49.654;6.596;2023-01-13T01:12:54;99043.44;;;11.37;50.66
74881;BME280;63427;49.654;6.596;2023-01-13T01:15:19;99037.68;;;10.71;52.65
74881;BME280;63427;49.654;6.596;2023-01-13T01:17:45;99046.62;;;10.87;52.59
74881;BME280;63427;49.654;6.596;2023-01-13T01:20:11;99039.91;;;10.89;52.39
74881;BME280;63427;49.654;6.596;2023-01-13T01:22:36;99045.10;;;11.30;52.03
74881;BME280;63427;49.654;6.596;2023-01-13T01:25:02;99047.57;;;11.32;51.51
74881;BME280;63427;49.654;6.596;2023-01-13T01:27:28;99046.82;;;10.74;52.37
74881;BME280;63427;49.654;6.596;2023-01-13T01:29:53;99045.51;;;11.33;51.50
74881;BME280;63427;49.654;6.596;2023-01-13T01:32:18;99045.58;;;11.09;52.49
74881;BME280;63427;49.654;6.596;2023-01-13T01:34:43;99043.55;;;10.12;54.07
74881;BME280;63427;49.654;6.596;2023-01-13T01:37:09;99053.00;;;10.90;52.64
74881;BME280;63427;49.654;6.596;2023-01-13T01:39:34;99041.47;;;11.43;51.64
74881;BME280;63427;49.654;6.596;2023-01-13T01:42:00;99030.79;;;11.69;50.58
74881;BME280;63427;49.654;6.596;2023-01-13T01:46:52;99040.77;;;11.65;50.48
74881;BME280;63427;49.654;6.596;2023-01-13T01:49:19;99041.64;;;11.12;51.90
74881;BME280;63427;49.654;6.596;2023-01-13T01:51:44;99042.07;;;10.45;53.04
74881;BME280;63427;49.654;6.596;2023-01-13T01:54:11;99049.29;;;10.95;52.30
74881;BME280;63427;49.654;6.596;2023-01-13T01:56:33;99041.72;;;10.80;53.03
74881;BME280;63427;49.654;6.596;2023-01-13T01:58:58;99035.08;;;11.12;52.26
74881;BME280;63427;49.654;6.596;2023-01-13T02:01:24;99032.26;;;10.71;53.13
74881;BME280;63427;49.654;6.596;2023-01-13T02:03:54;99017.79;;;11.03;52.60
74881;BME280;63427;49.654;6.596;2023-01-13T02:06:15;99021.80;;;10.65;53.76
74881;BME280;63427;49.654;6.596;2023-01-13T02:08:40;99034.78;;;10.33;53.82
74881;BME280;63427;49.654;6.596;2023-01-13T02:11:06;99023.64;;;10.75;53.77
74881;BME280;63427;49.654;6.596;2023-01-13T02:13:31;99019.10;;;10.68;53.74
74881;BME280;63427;49.654;6.596;2023-01-13T02:16:02;99012.12;;;10.47;55.38
74881;BME280;63427;49.654;6.596;2023-01-13T02:18:35;99004.14;;;10.30;55.41
74881;BME280;63427;49.654;6.596;2023-01-13T02:21:00;99007.17;;;10.67;54.16
74881;BME280;63427;49.654;6.596;2023-01-13T02:23:30;99001.43;;;10.26;54.41
74881;BME280;63427;49.654;6.596;2023-01-13T02:25:51;99003.14;;;9.95;56.34
74881;BME280;63427;49.654;6.596;2023-01-13T02:30:37;98985.31;;;10.11;56.17
74881;BME280;63427;49.654;6.596;2023-01-13T02:33:05;98989.23;;;10.00;55.83
74881;BME280;63427;49.654;6.596;2023-01-13T02:35:26;98993.00;;;10.17;56.49
74881;BME280;63427;49.654;6.596;2023-01-13T02:37:48;98980.67;;;10.28;54.44
74881;BME280;63427;49.654;6.596;2023-01-13T02:40:18;98978.48;;;10.92;54.73
74881;BME280;63427;49.654;6.596;2023-01-13T02:42:41;98970.97;;;11.32;53.08
74881;BME280;63427;49.654;6.596;2023-01-13T02:45:08;98971.29;;;11.51;52.32
74881;BME280;63427;49.654;6.596;2023-01-13T02:47:30;98973.85;;;10.73;53.90
74881;BME280;63427;49.654;6.596;2023-01-13T02:49:56;98956.64;;;11.26;52.95
74881;BME280;63427;49.654;6.596;2023-01-13T02:52:23;98953.72;;;11.16;52.94
74881;BME280;63427;49.654;6.596;2023-01-13T02:54:50;98951.58;;;11.19;52.64
74881;BME280;63427;49.654;6.596;2023-01-13T02:57:11;98949.90;;;10.06;56.44
74881;BME280;63427;49.654;6.596;2023-01-13T02:59:36;98952.96;;;10.52;54.61
74881;BME280;63427;49.654;6.596;2023-01-13T03:02:02;98945.06;;;10.92;53.68
74881;BME280;63427;49.654;6.596;2023-01-13T03:04:44;98943.34;;;10.74;53.34
74881;BME280;63427;49.654;6.596;2023-01-13T03:06:59;98936.64;;;11.20;52.37
74881;BME280;63427;49.654;6.596;2023-01-13T03:09:21;98933.91;;;11.22;51.71
74881;BME280;63427;49.654;6.596;2023-01-13T03:11:50;98931.42;;;11.19;52.53
74881;BME280;63427;49.654;6.596;2023-01-13T03:14:19;98936.72;;;10.99;53.45
74881;BME280;63427;49.654;6.596;2023-01-13T03:16:43;98930.85;;;11.39;52.51
74881;BME280;63427;49.654;6.596;2023-01-13T03:19:09;98923.13;;;11.33;52.13
74881;BME280;63427;49.654;6.596;2023-01-13T03:21:29;98924.54;;;10.69;53.10
74881;BME280;63427;49.654;6.596;2023-01-13T03:23:54;98929.79;;;10.87;52.98
74881;BME280;63427;49.654;6.596;2023-01-13T03:26:22;98927.08;;;10.73;54.09
74881;BME280;63427;49.654;6.596;2023-01-13T03:28:45;98932.46;;;10.99;53.61
74881;BME280;63427;49.654;6.596;2023-01-13T03:31:11;98926.65;;;10.26;55.22
74881;BME280;63427;49.654;6.596;2023-01-13T03:33:35;98924.96;;;11.20;53.35
74881;BME280;63427;49.654;6.596;2023-01-13T03:36:02;98928.54;;;10.53;54.80
74881;BME280;63427;49.654;6.596;2023-01-13T03:38:28;98929.51;;;11.05;53.68
74881;BME280;63427;49.654;6.596;2023-01-13T03:40:51;98930.80;;;10.96;53.87
74881;BME280;63427;49.654;6.596;2023-01-13T03:43:18;98929.75;;;11.30;53.03
74881;BME280;63427;49.654;6.596;2023-01-13T03:45:41;98939.98;;;11.19;52.82
74881;BME280;63427;49.654;6.596;2023-01-13T03:48:08;98949.41;;;11.26;52.19
74881;BME280;63427;49.654;6.596;2023-01-13T03:50:33;98965.90;;;11.54;51.89
74881;BME280;63427;49.654;6.596;2023-01-13T03:53:00;98971.37;;;11.75;51.35
74881;BME280;63427;49.654;6.596;2023-01-13T03:55:26;98968.51;;;12.18;50.25
74881;BME280;63427;49.654;6.596;2023-01-13T03:57:52;98970.53;;;12.02;48.05
74881;BME280;63427;49.654;6.596;2023-01-13T04:00:13;98959.31;;;11.76;46.80
74881;BME280;63427;49.654;6.596;2023-01-13T04:02:47;99003.25;;;10.04;50.23
74881;BME280;63427;49.654;6.596;2023-01-13T04:05:07;99009.58;;;10.71;49.06
74881;BME280;63427;49.654;6.596;2023-01-13T04:07:39;99017.98;;;10.29;49.67
74881;BME280;63427;49.654;6.596;2023-01-13T04:09:56;99016.42;;;10.86;48.90
74881;BME280;63427;49.654;6.596;2023-01-13T04:12:25;99004.20;;;10.87;48.74
74881;BME280;63427;49.654;6.596;2023-01-13T04:14:46;99011.56;;;11.19;48.55
74881;BME280;63427;49.654;6.596;2023-01-13T04:17:12;99005.51;;;11.19;48.67
74881;BME280;63427;49.654;6.596;2023-01-13T04:19:37;99003.08;;;11.09;48.40
74881;BME280;63427;49.654;6.596;2023-01-13T04:22:03;99006.62;;;11.52;48.07
74881;BME280;63427;49.654;6.596;2023-01-13T04:24:28;99010.67;;;11.16;47.66
74881;BME280;63427;49.654;6.596;2023-01-13T04:26:54;99014.65;;;11.41;47.06
74881;BME280;63427;49.654;6.596;2023-01-13T04:29:19;99025.91;;;11.71;46.97
74881;BME280;63427;49.654;6.596;2023-01-13T04:31:45;99024.85;;;11.46;46.99
74881;BME280;63427;49.654;6.596;2023-01-13T04:34:10;99019.19;;;10.88;46.88
74881;BME280;63427;49.654;6.596;2023-01-13T04:36:36;99016.54;;;11.01;46.93
74881;BME280;63427;49.654;6.596;2023-01-13T04:39:02;99016.85;;;11.31;46.74
74881;BME280;63427;49.654;6.596;2023-01-13T04:41:27;99017.16;;;11.51;46.37
74881;BME280;63427;49.654;6.596;2023-01-13T04:43:52;99016.41;;;11.22;45.73
74881;BME280;63427;49.654;6.596;2023-01-13T04:46:18;99022.91;;;11.05;46.33
74881;BME280;63427;49.654;6.596;2023-01-13T04:48:43;99023.39;;;10.33;47.46
74881;BME280;63427;49.654;6.596;2023-01-13T04:51:09;99029.11;;;10.92;46.81
74881;BME280;63427;49.654;6.596;2023-01-13T04:53:34;99035.99;;;10.51;47.25
74881;BME280;63427;49.654;6.596;2023-01-13T04:56:00;99039.24;;;10.44;46.83
74881;BME280;63427;49.654;6.596;2023-01-13T04:58:25;99036.87;;;10.74;47.05
74881;BME280;63427;49.654;6.596;2023-01-13T05:00:51;99048.62;;;10.60;46.67
74881;BME280;63427;49.654;6.596;2023-01-13T05:03:16;99044.42;;;10.89;46.85
74881;BME280;63427;49.654;6.596;2023-01-13T05:05:42;99042.48;;;10.84;46.58
74881;BME280;63427;49.654;6.596;2023-01-13T05:08:08;99043.30;;;10.87;46.55
74881;BME280;63427;49.654;6.596;2023-01-13T05:10:33;99028.01;;;10.80;46.13
74881;BME280;63427;49.654;6.596;2023-01-13T05:12:59;99016.12;;;10.58;47.02
74881;BME280;63427;49.654;6.596;2023-01-13T05:15:24;99000.08;;;10.97;46.36
74881;BME280;63427;49.654;6.596;2023-01-13T05:17:50;99003.40;;;10.84;45.76
74881;BME280;63427;49.654;6.596;2023-01-13T05:20:16;99005.61;;;10.39;45.33
74881;BME280;63427;49.654;6.596;2023-01-13T05:22:41;99005.26;;;10.69;45.73
74881;BME280;63427;49.654;6.596;2023-01-13T05:25:08;99018.83;;;10.58;45.35
74881;BME280;63427;49.654;6.596;2023-01-13T05:27:32;99028.63;;;10.73;45.65
74881;BME280;63427;49.654;6.596;2023-01-13T05:29:58;99046.95;;;10.95;45.24
74881;BME280;63427;49.654;6.596;2023-01-13T05:32:24;99053.34;;;10.97;45.44
74881;BME280;63427;49.654;6.596;2023-01-13T05:34:49;99052.72;;;10.88;44.94
74881;BME280;63427;49.654;6.596;2023-01-13T05:37:15;99040.89;;;10.12;46.16
74881;BME280;63427;49.654;6.596;2023-01-13T05:39:40;99032.93;;;10.22;46.28
74881;BME280;63427;49.654;6.596;2023-01-13T05:42:07;99035.22;;;10.26;46.17
74881;BME280;63427;49.654;6.596;2023-01-13T05:44:31;99044.82;;;10.41;45.82
74881;BME280;63427;49.654;6.596;2023-01-13T05:46:56;99052.96;;;10.27;45.88
74881;BME280;63427;49.654;6.596;2023-01-13T05:49:23;99059.58;;;10.62;45.26
74881;BME280;63427;49.654;6.596;2023-01-13T05:51:47;99062.38;;;10.41;45.74
74881;BME280;63427;49.654;6.596;2023-01-13T05:54:13;99059.94;;;10.63;45.24
74881;BME280;63427;49.654;6.596;2023-01-13T05:56:39;99064.86;;;10.87;45.21
74881;BME280;63427;49.654;6.596;2023-01-13T05:59:04;99065.81;;;10.78;44.94
74881;BME280;63427;49.654;6.596;2023-01-13T06:01:30;99075.87;;;10.22;46.03
74881;BME280;63427;49.654;6.596;2023-01-13T06:03:55;99082.21;;;10.28;45.84
74881;BME280;63427;49.654;6.596;2023-01-13T06:06:21;99084.93;;;10.37;45.68
74881;BME280;63427;49.654;6.596;2023-01-13T06:08:47;99086.63;;;10.44;45.65
74881;BME280;63427;49.654;6.596;2023-01-13T06:11:12;99090.37;;;10.46;45.27
74881;BME280;63427;49.654;6.596;2023-01-13T06:13:38;99092.08;;;10.76;44.94
74881;BME280;63427;49.654;6.596;2023-01-13T06:16:04;99082.84;;;10.64;45.02
74881;BME280;63427;49.654;6.596;2023-01-13T06:18:29;99083.30;;;10.62;44.73
74881;BME280;63427;49.654;6.596;2023-01-13T06:20:55;99082.93;;;10.36;44.68
74881;BME280;63427;49.654;6.596;2023-01-13T06:23:20;99082.55;;;10.37;44.67
74881;BME280;63427;49.654;6.596;2023-01-13T06:25:51;99085.50;;;10.29;44.78
74881;BME280;63427;49.654;6.596;2023-01-13T06:28:11;99096.71;;;10.50;44.62
74881;BME280;63427;49.654;6.596;2023-01-13T06:30:39;99099.90;;;10.09;44.59
74881;BME280;63427;49.654;6.596;2023-01-13T06:33:05;99104.99;;;10.00;45.05
74881;BME280;63427;49.654;6.596;2023-01-13T06:35:31;99103.26;;;10.27;45.07
74881;BME280;63427;49.654;6.596;2023-01-13T06:37:55;99109.67;;;10.36;44.94
74881;BME280;63427;49.654;6.596;2023-01-13T06:40:19;99111.90;;;9.90;46.00
74881;BME280;63427;49.654;6.596;2023-01-13T06:42:45;99106.04;;;10.06;45.57
74881;BME280;63427;49.654;6.596;2023-01-13T06:45:10;99107.70;;;10.09;45.54
74881;BME280;63427;49.654;6.596;2023-01-13T06:47:36;99110.36;;;10.62;45.61
74881;BME280;63427;49.654;6.596;2023-01-13T06:50:01;99119.17;;;10.17;45.30
74881;BME280;63427;49.654;6.596;2023-01-13T06:52:27;99111.08;;;10.46;45.80
74881;BME280;63427;49.654;6.596;2023-01-13T06:54:52;99113.37;;;9.83;46.02
74881;BME280;63427;49.654;6.596;2023-01-13T06:57:18;99110.81;;;9.82;46.63
74881;BME280;63427;49.654;6.596;2023-01-13T06:59:44;99112.14;;;10.31;46.02
74881;BME280;63427;49.654;6.596;2023-01-13T07:02:09;99117.06;;;9.61;46.89
74881;BME280;63427;49.654;6.596;2023-01-13T07:04:34;99119.32;;;9.21;48.02
74881;BME280;63427;49.654;6.596;2023-01-13T07:07:00;99124.79;;;9.47;47.77
74881;BME280;63427;49.654;6.596;2023-01-13T07:09:25;99136.89;;;9.59;47.39
74881;BME280;63427;49.654;6.596;2023-01-13T07:11:51;99132.21;;;9.70;46.94
74881;BME280;63427;49.654;6.596;2023-01-13T07:14:17;99139.69;;;9.51;47.70
74881;BME280;63427;49.654;6.596;2023-01-13T07:16:42;99135.38;;;9.31;47.79
74881;BME280;63427;49.654;6.596;2023-01-13T07:19:08;99132.44;;;9.60;47.58
74881;BME280;63427;49.654;6.596;2023-01-13T07:21:34;99131.26;;;9.46;47.76
74881;BME280;63427;49.654;6.596;2023-01-13T07:23:59;99138.18;;;9.81;47.13
74881;BME280;63427;49.654;6.596;2023-01-13T07:26:24;99137.71;;;9.38;47.82
74881;BME280;63427;49.654;6.596;2023-01-13T07:28:50;99130.99;;;9.37;47.91
74881;BME280;63427;49.654;6.596;2023-01-13T07:31:18;99134.87;;;9.28;47.97
74881;BME280;63427;49.654;6.596;2023-01-13T07:33:41;99149.89;;;9.81;47.91
74881;BME280;63427;49.654;6.596;2023-01-13T07:36:07;99151.58;;;9.26;47.47
74881;BME280;63427;49.654;6.596;2023-01-13T07:38:33;99154.58;;;9.11;47.60
74881;BME280;63427;49.654;6.596;2023-01-13T07:40:58;99157.71;;;9.39;47.14
74881;BME280;63427;49.654;6.596;2023-01-13T07:43:24;99157.15;;;8.85;47.37
74881;BME280;63427;49.654;6.596;2023-01-13T07:45:54;99159.02;;;9.04;47.00
74881;BME280;63427;49.654;6.596;2023-01-13T07:48:15;99153.69;;;9.18;46.45
74881;BME280;63427;49.654;6.596;2023-01-13T07:50:40;99158.20;;;9.56;46.36
74881;BME280;63427;49.654;6.596;2023-01-13T07:53:05;99155.66;;;9.32;46.09
74881;BME280;63427;49.654;6.596;2023-01-13T07:55:31;99162.86;;;9.25;45.53
74881;BME280;63427;49.654;6.596;2023-01-13T07:57:57;99165.16;;;9.17;46.18
74881;BME280;63427;49.654;6.596;2023-01-13T08:00:23;99168.56;;;9.18;45.57
74881;BME280;63427;49.654;6.596;2023-01-13T08:02:48;99173.31;;;9.06;45.10
74881;BME280;63427;49.654;6.596;2023-01-13T08:05:13;99176.62;;;8.91;44.97
74881;BME280;63427;49.654;6.596;2023-01-13T08:07:39;99169.62;;;8.67;45.53
74881;BME280;63427;49.654;6.596;2023-01-13T08:10:06;99174.72;;;8.61;45.89
74881;BME280;63427;49.654;6.596;2023-01-13T08:12:31;99181.87;;;9.34;44.86
74881;BME280;63427;49.654;6.596;2023-01-13T08:14:56;99177.34;;;9.14;45.56
74881;BME280;63427;49.654;6.596;2023-01-13T08:17:21;99188.80;;;9.19;45.08
74881;BME280;63427;49.654;6.596;2023-01-13T08:19:47;99178.64;;;9.46;44.74
74881;BME280;63427;49.654;6.596;2023-01-13T08:22:12;99193.48;;;9.06;45.28
74881;BME280;63427;49.654;6.596;2023-01-13T08:24:38;99195.75;;;9.32;45.04
74881;BME280;63427;49.654;6.596;2023-01-13T08:27:03;99205.09;;;9.20;44.72
74881;BME280;63427;49.654;6.596;2023-01-13T08:29:29;99208.01;;;9.58;44.45
74881;BME280;63427;49.654;6.596;2023-01-13T08:31:54;99203.40;;;9.55;44.28
74881;BME280;63427;49.654;6.596;2023-01-13T08:34:20;99203.78;;;9.81;43.92
74881;BME280;63427;49.654;6.596;2023-01-13T08:36:47;99217.26;;;9.80;43.97
74881;BME280;63427;49.654;6.596;2023-01-13T08:39:10;99216.83;;;9.80;44.43
74881;BME280;63427;49.654;6.596;2023-01-13T08:41:36;99215.79;;;9.67;43.71
74881;BME280;63427;49.654;6.596;2023-01-13T08:44:02;99221.73;;;9.78;44.40
74881;BME280;63427;49.654;6.596;2023-01-13T08:46:27;99221.64;;;9.37;44.64
74881;BME280;63427;49.654;6.596;2023-01-13T08:48:54;99235.06;;;9.95;44.76
74881;BME280;63427;49.654;6.596;2023-01-13T08:51:18;99228.32;;;9.03;45.85
74881;BME280;63427;49.654;6.596;2023-01-13T08:53:44;99229.30;;;9.20;45.84
74881;BME280;63427;49.654;6.596;2023-01-13T08:56:10;99235.14;;;9.29;45.26
74881;BME280;63427;49.654;6.596;2023-01-13T08:58:35;99241.09;;;9.43;45.26
74881;BME280;63427;49.654;6.596;2023-01-13T09:01:03;99252.33;;;9.67;44.86
74881;BME280;63427;49.654;6.596;2023-01-13T09:03:26;99241.02;;;9.41;45.54
74881;BME280;63427;49.654;6.596;2023-01-13T09:05:51;99264.72;;;9.74;44.06
74881;BME280;63427;49.654;6.596;2023-01-13T09:08:17;99265.10;;;9.06;44.54
74881;BME280;63427;49.654;6.596;2023-01-13T09:10:42;99270.22;;;9.54;44.27
74881;BME280;63427;49.654;6.596;2023-01-13T09:13:11;99267.38;;;9.53;44.25
74881;BME280;63427;49.654;6.596;2023-01-13T09:15:33;99283.78;;;9.50;44.42
74881;BME280;63427;49.654;6.596;2023-01-13T09:17:59;99285.34;;;9.57;43.66
74881;BME280;63427;49.654;6.596;2023-01-13T09:20:24;99283.98;;;9.50;43.77
74881;BME280;63427;49.654;6.596;2023-01-13T09:22:50;99294.29;;;9.44;44.07
74881;BME280;63427;49.654;6.596;2023-01-13T09:25:17;99300.96;;;9.30;44.05
74881;BME280;63427;49.654;6.596;2023-01-13T09:27:41;99296.55;;;9.73;43.42
74881;BME280;63427;49.654;6.596;2023-01-13T09:30:08;99304.33;;;10.32;43.53
74881;BME280;63427;49.654;6.596;2023-01-13T09:32:32;99300.92;;;10.14;42.99
74881;BME280;63427;49.654;6.596;2023-01-13T09:34:57;99300.60;;;9.99;42.17
74881;BME280;63427;49.654;6.596;2023-01-13T09:37:23;99302.21;;;10.13;42.00
74881;BME280;63427;49.654;6.596;2023-01-13T09:39:48;99312.87;;;10.21;41.67
74881;BME280;63427;49.654;6.596;2023-01-13T09:42:19;99300.71;;;10.21;40.67
74881;BME280;63427;49.654;6.596;2023-01-13T09:44:44;99314.01;;;9.48;42.12
74881;BME280;63427;49.654;6.596;2023-01-13T09:47:10;99303.48;;;9.12;43.34
74881;BME280;63427;49.654;6.596;2023-01-13T09:49:33;99306.72;;;9.44;42.53
74881;BME280;63427;49.654;6.596;2023-01-13T09:52:01;99311.64;;;9.68;41.74
74881;BME280;63427;49.654;6.596;2023-01-13T09:54:27;99312.04;;;9.58;42.04
74881;BME280;63427;49.654;6.596;2023-01-13T09:56:47;99306.90;;;9.72;42.06
74881;BME280;63427;49.654;6.596;2023-01-13T09:59:13;99299.79;;;9.75;42.17
74881;BME280;63427;49.654;6.596;2023-01-13T10:01:44;99303.38;;;10.18;41.43
74881;BME280;63427;49.654;6.596;2023-01-13T10:04:05;99305.10;;;9.46;42.04
74881;BME280;63427;49.654;6.596;2023-01-13T10:06:33;99315.95;;;10.42;41.89
74881;BME280;63427;49.654;6.596;2023-01-13T10:08:54;99324.39;;;10.31;42.21
74881;BME280;63427;49.654;6.596;2023-01-13T10:11:21;99321.36;;;10.27;42.37
74881;BME280;63427;49.654;6.596;2023-01-13T10:13:47;99323.73;;;10.37;42.41
74881;BME280;63427;49.654;6.596;2023-01-13T10:16:23;99325.90;;;10.64;42.01
74881;BME280;63427;49.654;6.596;2023-01-13T10:18:43;99330.98;;;10.42;42.84
74881;BME280;63427;49.654;6.596;2023-01-13T10:21:12;99338.03;;;10.12;42.39
74881;BME280;63427;49.654;6.596;2023-01-13T10:23:41;99344.50;;;10.15;42.69
74881;BME280;63427;49.654;6.596;2023-01-13T10:26:00;99355.50;;;10.38;42.11
74881;BME280;63427;49.654;6.596;2023-01-13T10:28:19;99360.89;;;9.37;42.18
74881;BME280;63427;49.654;6.596;2023-01-13T10:30:46;99365.50;;;9.75;42.57
74881;BME280;63427;49.654;6.596;2023-01-13T10:33:12;99361.68;;;9.40;42.62
74881;BME280;63427;49.654;6.596;2023-01-13T10:35:49;99365.65;;;10.30;42.00
74881;BME280;63427;49.654;6.596;2023-01-13T10:38:01;99360.44;;;9.82;41.72
74881;BME280;63427;49.654;6.596;2023-01-13T10:40:26;99356.94;;;9.34;43.01
74881;BME280;63427;49.654;6.596;2023-01-13T10:45:23;99346.46;;;10.57;40.77
74881;BME280;63427;49.654;6.596;2023-01-13T10:47:49;99354.46;;;10.06;40.22
74881;BME280;63427;49.654;6.596;2023-01-13T10:50:22;99353.27;;;10.61;39.71
74881;BME280;63427;49.654;6.596;2023-01-13T10:52:37;99353.31;;;10.47;39.53
74881;BME280;63427;49.654;6.596;2023-01-13T10:55:00;99343.49;;;10.61;39.24
74881;BME280;63427;49.654;6.596;2023-01-13T10:57:26;99339.38;;;10.89;39.09
74881;BME280;63427;49.654;6.596;2023-01-13T10:59:51;99339.74;;;11.04;38.71
74881;BME280;63427;49.654;6.596;2023-01-13T11:02:19;99327.07;;;11.65;38.13
74881;BME280;63427;49.654;6.596;2023-01-13T11:04:57;99333.05;;;12.41;36.98
74881;BME280;63427;49.654;6.596;2023-01-13T11:07:17;99339.15;;;12.50;36.41
74881;BME280;63427;49.654;6.596;2023-01-13T11:09:33;99344.02;;;11.32;38.54
74881;BME280;63427;49.654;6.596;2023-01-13T11:11:58;99339.98;;;10.90;39.07
74881;BME280;63427;49.654;6.596;2023-01-13T11:14:27;99347.47;;;10.83;39.09
74881;BME280;63427;49.654;6.596;2023-01-13T11:16:52;99346.94;;;10.82;39.68
74881;BME280;63427;49.654;6.596;2023-01-13T11:19:16;99347.00;;;11.28;39.62
74881;BME280;63427;49.654;6.596;2023-01-13T11:21:47;99343.63;;;11.10;38.34
74881;BME280;63427;49.654;6.596;2023-01-13T11:24:11;99336.25;;;11.21;38.05
74881;BME280;63427;49.654;6.596;2023-01-13T11:26:43;99343.57;;;11.25;38.35
74881;BME280;63427;49.654;6.596;2023-01-13T11:28:59;99350.11;;;11.71;37.45
74881;BME280;63427;49.654;6.596;2023-01-13T11:31:25;99356.92;;;10.82;38.04
74881;BME280;63427;49.654;6.596;2023-01-13T11:33:51;99341.98;;;11.46;37.28
74881;BME280;63427;49.654;6.596;2023-01-13T11:36:16;99352.04;;;11.23;37.46
74881;BME280;63427;49.654;6.596;2023-01-13T11:38:43;99351.75;;;11.37;37.12
74881;BME280;63427;49.654;6.596;2023-01-13T11:41:09;99349.29;;;11.49;37.57
74881;BME280;63427;49.654;6.596;2023-01-13T11:43:33;99349.86;;;10.43;37.98
74881;BME280;63427;49.654;6.596;2023-01-13T11:45:56;99341.55;;;10.87;37.92
74881;BME280;63427;49.654;6.596;2023-01-13T11:48:22;99344.22;;;11.20;38.14
74881;BME280;63427;49.654;6.596;2023-01-13T11:50:48;99344.34;;;10.88;38.62
74881;BME280;63427;49.654;6.596;2023-01-13T11:53:23;99340.78;;;10.19;39.42
74881;BME280;63427;49.654;6.596;2023-01-13T11:55:44;99353.50;;;10.94;39.46
74881;BME280;63427;49.654;6.596;2023-01-13T12:00:33;99382.14;;;9.64;42.93
74881;BME280;63427;49.654;6.596;2023-01-13T12:03:03;99371.91;;;9.79;42.33
74881;BME280;63427;49.654;6.596;2023-01-13T12:05:22;99366.75;;;10.13;41.37
74881;BME280;63427;49.654;6.596;2023-01-13T12:07:51;99371.47;;;10.22;41.41
74881;BME280;63427;49.654;6.596;2023-01-13T12:10:13;99367.72;;;10.19;41.61
74881;BME280;63427;49.654;6.596;2023-01-13T12:12:45;99370.46;;;10.17;41.26
74881;BME280;63427;49.654;6.596;2023-01-13T12:17:31;99364.15;;;10.82;39.88
74881;BME280;63427;49.654;6.596;2023-01-13T12:19:51;99360.92;;;10.67;40.76
74881;BME280;63427;49.654;6.596;2023-01-13T12:22:21;99368.76;;;10.36;41.23
74881;BME280;63427;49.654;6.596;2023-01-13T12:24:48;99369.07;;;10.68;41.36
74881;BME280;63427;49.654;6.596;2023-01-13T12:27:12;99364.12;;;10.04;41.99
74881;BME280;63427;49.654;6.596;2023-01-13T12:29:35;99369.32;;;10.63;41.24
74881;BME280;63427;49.654;6.596;2023-01-13T12:32:00;99372.88;;;10.31;41.87
74881;BME280;63427;49.654;6.596;2023-01-13T12:34:35;99368.60;;;11.25;40.84
74881;BME280;63427;49.654;6.596;2023-01-13T12:36:56;99369.25;;;11.09;40.57
74881;BME280;63427;49.654;6.596;2023-01-13T12:39:22;99362.50;;;11.32;40.37
74881;BME280;63427;49.654;6.596;2023-01-13T12:41:46;99376.82;;;11.16;40.56
74881;BME280;63427;49.654;6.596;2023-01-13T12:44:07;99366.00;;;10.51;41.73
74881;BME280;63427;49.654;6.596;2023-01-13T12:46:47;99364.62;;;10.89;41.56
74881;BME280;63427;49.654;6.596;2023-01-13T12:49:05;99367.29;;;9.82;42.87
74881;BME280;63427;49.654;6.596;2023-01-13T12:51:25;99364.73;;;9.98;43.31
74881;BME280;63427;49.654;6.596;2023-01-13T12:53:49;99359.55;;;9.81;43.76
74881;BME280;63427;49.654;6.596;2023-01-13T12:56:26;99357.85;;;10.27;43.48
74881;BME280;63427;49.654;6.596;2023-01-13T12:58:39;99369.15;;;10.26;42.53
74881;BME280;63427;49.654;6.596;2023-01-13T13:01:11;99364.82;;;10.15;42.20
74881;BME280;63427;49.654;6.596;2023-01-13T13:03:32;99380.99;;;10.69;42.05